Timeline UpdatesTrip UpdatesNews PostsPvt PostsTravel TipsAdmin PostsConv PostsFollowed PostsChat RequestsBlog PostsPNR Posts

Disclaimer
Search
 
 
Wed Oct 1, 2014 01:26:32 ISTHomeTrainsΣChainsAtlasPNRForumGalleryNewsFAQTripsMembersLoginFeedback
No Recent News for this Train
Other Trains in the News **new
Latest...
.
Wed May 15, 2013 (12:03AM)
⇐ Return Journey: Train# 59439

59440/Ahmedabad - Mumbai Central Passenger

Time-Table HAS CHANGED.
Sep 02 (11:08PM)
Change Departure Station:
Change Arrival Station:
Post a Train Travel TipPost a Train Travel Tip **new
Post a Comment/Question/Picture/VideoPost a Comment/Question/Picture/Video
Pantry/Catering
✕ NO Pantry Car
✕ NO Catering
RSA - Rake Sharing
59439,59440,59441 and 59442 all share rakes.
Rake/Coach Composition
Loco
BL WCAM-1/BRC WAG-5A
News    PNR    Forum    Time-Table    Availability    Fare Chart    Map    Arr/Dep History    Trips    Gallery    ΣChains    X/O    Timeline    
Travel Time: 12h 23m    51 halts    Distance: 373 km    Avg Speed: 30 km/hr
Type: Passenger
Zone: WR/Western
Departs @ 23:00 (Avg 1m late)
Platform# 2
SMTWTFS
Ahmedabad Junction/ADI 
Arrives @ 11:23 +1 night (Avg 45m late)
Platform# ???
SMTWTFS
Dahanu Road/DRD 

51 halts. 72 intermediate Stations between Ahmedabad Junction and Dahanu Road

Show ALL intermediate Stations  Show Old Time-Table

#CodeStation NameX/OArrivesAvgDepartsAvgHaltPFDay#KmSpeedElevZoneAddress
1ADIAhmedabad Junction (12)»  -23:00+1210.02451mWRAhmedabad, Gujarat
2MANManinagar (2)X  23:10 23:08+023:12 23:10+02m213.25850mWRAhmadabad, Gujarat
3VTAVatva (4)X  23:17 23:15+423:19 23:17+52m--18.02549mWRDist. Ahmedabad 382445, Gujarat
4BJDBarejadi Nandej (3)XO  23:40 23:38+1323:41 23:40+131 2m--116.65242mWRBareja-Barejadi Rd, Gujarat
5KANJKanij (3)  23:47 23:45+1423:48 23:47+191 2m--121.01239mWRBareja-Barejadi Rd, Gujarat
6NEPNenpur (2)O  00:02 00:01-00:03 00:02-1m--223.85035mWRState Highway 3, Gujarat
7MHDMahemdavad Kheda Road (4)X  00:09 00:07+2700:10 00:09+341 2m--228.03837mWRMahemdavad, Gujarat
8GTEGothaj (2)X  00:24 00:22+3100:26 00:24+362m--236.35032mWRState Highway 3, Gujarat
9NDNadiad Junction (4)X  00:35+2500:39+244m--245.67337mWRNadiad, Gujarat
10KBRVKanjari Boriyavi Junction (4)XO  00:50 00:48+3900:52 00:50+402m--256.61839mWRKanjari, Gujarat
11ANNDAnand Junction (6)  01:15+1801:20+175m--264.06944mWRAnand, Gujarat
12VXDVadod (3)X  01:28 01:26+3001:29 01:28+301 2m--270.94144mWRAnand District, Gujarat
13ADDAdas Road (4)X  01:36 01:34+2901:37 01:36+291 2m--274.94642mWRNational Highway 8, Gujarat
14VDAVasad Junction (3)  01:44 01:42+2901:46 01:44+292m--279.66940mWRVasad, Gujarat
15RNORanoli (2)X  01:54 01:52+2901:55 01:54+301 2m--288.72339mWRVadodara District, Gujarat
16BJWBajva (3)X  02:06 02:04+3102:07 02:06+311 2m--292.51638mWRVadodara, Gujarat
17BRCVadodara Junction (7)X  02:33+1402:38+145m--299.87336mWRVadodara 390005, Gujarat
18ITAItola (4)  02:55 02:53+2902:56 02:55+471 2m--2118.07727mWRNational Highway 8 Vadodara, Gujarat
19MYGMiyagam Karjan (2)  03:06 03:04+1:0003:08 03:06+1:002m--2129.67029mWRKarjan, Gujarat
20PLJPalej (4)X  03:21 03:19+5703:23 03:21+592m--2144.94529mWRPalej, Gujarat
21BHBharuch Junction (5)XO  04:15 03:55+4404:20 04:13+405 18m42170.38019mWRBharuch, Gujarat
22AKVAnkleshwar Junction (4)X  04:39 04:20+4604:41 04:22+472m22179.66219mWRAnkleshwar, Gujarat
23PAOPanoli (3)X  04:50 04:32+5604:52 04:33+592 1m--2189.92329mWRPanoli, Gujarat
24HATHathuran (2)X  04:58 04:43-05:00 04:44-2 1m--2193.85232mWRKosamba, Gujarat
25KSBKosamba Junction (3)XO  05:05 04:49+5705:07 04:51+562m--2198.15230mWRKosamba, Gujarat
26KIMKim (2)X  05:16 05:00+5505:18 05:02+1:002m--2205.91818mWRNH 8, Gujarat
27SYNSayan (3)XO  05:42 05:36+4505:44 05:38+492m--2215.91421mWRSayan Satellite town, Gujarat
28GTXGothangam (2)XO  05:58 05:51+4306:00 05:53+422m--2218.81219mWRAmroli Sayan Rd, Gujarat
29KSEKosad (2)  06:06 06:11+3606:08 06:13+372m--2222.52417mWRSurat, Gujarat
30URNUtran (3)XO  06:23 06:21+3206:25 06:23+362m--2225.7715mWRSurat, Gujarat
31STSurat (4)XOO  06:55+1707:15+1320m32229.64019mWRSurat 395001, Gujarat
32UDNUdhna Junction (3)X  07:21+2307:23+232m22233.64816mWRUdhna 394210, Gujarat
33BHETBhestan (2)  07:31 07:29+2607:32 07:31+271 2m22238.46813mWRSurat, Gujarat
34SCHSachin (3)O  07:38 07:36+2907:40 07:38+292m--2244.15711mWRKansad Road Sachin, Gujarat
35MRLMaroli (3)XO  07:46 07:45+3007:48 07:47+312m--2250.73015mWRMaroli, Gujarat
36NVSNavsari (3)  08:05 08:04+2208:06+261 2m--2259.25614mWRNavsari, Gujarat
37VDHVedchha (3)X  08:16 08:15+2908:17+281 2m--2267.65113mWRNavsari, Gujarat
38ACLAncheli (2)X  08:21-08:23-2m--2271.05720mWRNavsari, Gujarat
39AMLAmalsad (3)  08:27+3008:29+302m--2274.85612mWRAmalsad, Gujarat
40BIMBilimora Junction (4)O  08:35+2708:37+292m--2280.34711mWRBilimora, Gujarat
41JRSJoravasan (2)  08:42-08:44-2m--2284.37615mWRJoravasan, Gujarat
42DGIDungri (3)XO  08:48+3908:50+402m--2289.42120mWRNH 8, Gujarat
43BLValsad (3)X  09:15+2509:20+265m--2298.38015mWRValsad, Gujarat
44ATULAtul (3)  09:25+4409:27+442m--2305.06022mWRValsad, Gujarat
45PADPardi (3)  09:31+4609:33+462m--2308.94519mWRValsad, Gujarat
46UVDUdvada (3)XO  09:41+4509:43+502m--2314.92518mWRUdvada, Gujarat
47VAPIVapi (3)X  10:06+2410:08+262m--2324.54827mWRVapi, Gujarat
48KEBKarambeli (2)XO  10:16-10:18-2m--2331.04829mWRNational Highway 8, Gujarat
49BLDBhilad (3)X  10:24+5510:26+552m--2335.86933mWRBhilad, Gujarat
50SJNSanjan (3)X  10:36+5610:38+572m--2347.45422mWRSanjan, Gujarat
51UBRUmbargam Road (3)  10:44+5610:46+572m32352.73230mWRUmbergaon, Gujarat
52GVDGholvad (4)  11:03+5511:05+582m--2361.93714mWRGholvad, Maharashtra
53DRDDahanu Road (5)•  11:22 11:23+4511:25+503 2m--2373.05712mWRDahanu, Maharashtra
54VGNVangaon (3)X  11:38+911:40+132m--2385.36311mWRDist. Palghar, Maharashtra
55BORBoisar (3)  11:49+1511:51+152m32394.73817mWRBoisar Tel.no-02525-266626, Maharashtra
56PLGPalghar (3)XO  12:09+212:11+22m--2406.05619mWRPalghar, Maharashtra
57KLVKelve Road (3)X  12:20+812:22+102m--2414.46410mWRDist. Palghar, Maharashtra
58SAHSaphale (2)X  12:28+1212:30+112m22420.8588mWRDist. Palghar, Maharashtra
59VTNVaitarna (2)XO  12:38+1312:40+122m22428.6133mWRDist. Palghar, Maharashtra
60VRVirar (8)X  13:20 13:18-213:28 13:20+28 2m42437.1286mWRDist. Palghar, Maharashtra
61BSRVasai Road (7)X  13:36 13:38+113:38 13:40+12m52445.6427mWRVasai 401202, Maharashtra
62BVIMumbai Borivali (8)  14:05+1114:13 -62463.0-19mWRMumbai - 400092, Maharashtra
Scroll to Top
Scroll to Bottom